Cullingworth, United Kingdom
Current Conditions -  °F | °C
As of 6:20 PM on Thursday 29 Jan 2015 (Local Time) from EGNM Reporting Station
Snow Showers Snow Showers  
Wind Chill: 21°   Ceiling: 1000
Heat Index: 32°   Visibility: 2.5mi
Dew Point: 32°   Wind: 16mph
Humidity: 100%   Direction: 270°W
Pressure: 28.73"   Gusts: NA
Location:  53.82°N, 1.9°W
Report Text: EGNM 291820Z 27014KT 4000 -SHSN BKN010 00/M00 Q0973
Loading
Personal Weather Stations






























Interactive Weather Map New forecast layout! Learn more

10-Day Weather Forecast

Advertisements
Track Severe Weather on mobile